Time;durP1;ratioP1;P1;durP2;ratioP2;P2;SDS_P1;SDS_P2;PMS_P1;PMS_P2;Temp;Humidity;BMP_temperature;BMP_pressure;BME280_temperature;BME280_humidity;BME280_pressure;Samples;Min_cycle;Max_cycle;Signal;HPM_P1;HPM_P2
2022/02/20 00:00:41;;;;;;;3.97;0.57;;;;;;;6.86;77.06;98434.41;5063350;28;20029;-69
2022/02/20 00:03:06;;;;;;;2.15;1.00;;;;;;;6.74;77.01;98424.03;5063356;28;20025;-69
2022/02/20 00:05:31;;;;;;;2.40;0.93;;;;;;;6.70;76.03;98421.47;5063451;28;20028;-69
2022/02/20 00:07:57;;;;;;;4.32;0.43;;;;;;;6.69;76.63;98418.00;5063359;28;20021;-69
2022/02/20 00:10:23;;;;;;;1.95;0.50;;;;;;;6.63;77.58;98436.34;5063333;28;20017;-69
2022/02/20 00:12:48;;;;;;;1.92;0.82;;;;;;;6.62;77.64;98432.00;5063195;28;20100;-69
2022/02/20 00:15:14;;;;;;;10.30;1.15;;;;;;;6.61;77.91;98438.06;5062874;28;20331;-69
2022/02/20 00:17:39;;;;;;;7.20;0.90;;;;;;;6.52;78.13;98432.94;5062999;28;20089;-69
2022/02/20 00:20:06;;;;;;;16.73;1.70;;;;;;;6.48;78.83;98439.03;5062771;28;20024;-69
2022/02/20 00:22:32;;;;;;;5.00;1.15;;;;;;;6.47;79.77;98434.69;5062808;28;20020;-69
2022/02/20 00:24:57;;;;;;;3.72;0.93;;;;;;;6.55;80.75;98427.66;5062799;28;20028;-69
2022/02/20 00:27:24;;;;;;;4.20;0.90;;;;;;;6.44;80.27;98439.94;5062814;28;20024;-69
2022/02/20 00:29:50;;;;;;;7.65;1.38;;;;;;;6.37;80.01;98422.56;5062470;28;20050;-69
2022/02/20 00:32:15;;;;;;;1.27;0.52;;;;;;;6.39;80.60;98439.09;5062865;28;20091;-69
2022/02/20 00:34:41;;;;;;;4.00;1.00;;;;;;;6.35;80.23;98430.41;5062644;28;20017;-69
2022/02/20 00:37:07;;;;;;;8.07;1.15;;;;;;;6.28;81.54;98440.91;5062928;28;20029;-69
2022/02/20 00:39:33;;;;;;;6.43;0.80;;;;;;;6.14;82.39;98427.06;5062461;28;20313;-69
2022/02/20 00:41:58;;;;;;;5.18;1.58;;;;;;;6.22;82.18;98433.09;5062619;28;20044;-69
2022/02/20 00:44:24;;;;;;;6.68;1.40;;;;;;;6.21;82.62;98436.59;5062661;28;20017;-69
2022/02/20 00:46:49;;;;;;;5.47;1.27;;;;;;;6.25;82.42;98438.31;5062613;28;20017;-69
2022/02/20 00:49:15;;;;;;;6.47;0.93;;;;;;;6.12;84.00;98453.19;5063529;28;20024;-69
2022/02/20 00:51:40;;;;;;;6.45;1.02;;;;;;;6.13;84.23;98439.25;5066930;28;20020;-69
2022/02/20 00:54:08;;;;;;;6.38;1.42;;;;;;;6.08;85.12;98448.84;5066136;28;20028;-69
2022/02/20 00:56:35;;;;;;;9.82;0.90;;;;;;;6.02;85.07;98455.84;5066647;28;20020;-69
2022/02/20 00:59:01;;;;;;;5.75;1.35;;;;;;;6.00;85.68;98468.03;5066042;28;20052;-69
2022/02/20 01:01:27;;;;;;;7.40;1.35;;;;;;;6.10;86.53;98474.97;5066153;28;20016;-69
2022/02/20 01:03:53;;;;;;;4.78;0.68;;;;;;;5.97;87.28;98462.84;5065053;28;20420;-69
2022/02/20 01:06:18;;;;;;;5.53;1.33;;;;;;;6.04;86.92;98470.66;5066474;28;20313;-69
2022/02/20 01:08:44;;;;;;;3.38;1.05;;;;;;;6.00;87.00;98473.28;5066181;28;20216;-69
2022/02/20 01:11:09;;;;;;;12.48;1.23;;;;;;;6.03;86.26;98475.88;5059811;28;20020;-69
2022/02/20 01:13:35;;;;;;;15.60;1.77;;;;;;;6.05;86.58;98477.59;5066512;28;20017;-69
2022/02/20 01:16:00;;;;;;;13.32;1.25;;;;;;;6.00;86.75;98486.34;5065954;28;20020;-69
2022/02/20 01:18:26;;;;;;;2.80;0.80;;;;;;;6.02;87.64;98487.22;5065938;28;20017;-69
2022/02/20 01:20:51;;;;;;;3.78;0.95;;;;;;;6.08;88.01;98492.41;5066384;28;20013;-69
2022/02/20 01:23:17;;;;;;;4.95;0.88;;;;;;;6.04;88.67;98490.66;5066092;28;20060;-69
2022/02/20 01:25:42;;;;;;;4.85;0.90;;;;;;;5.98;88.63;98482.88;5065919;28;20367;-69
2022/02/20 01:28:08;;;;;;;12.60;1.50;;;;;;;6.00;89.19;98488.94;5065672;28;20028;-69
2022/02/20 01:30:33;;;;;;;5.63;0.98;;;;;;;5.96;88.94;98502.91;5066033;28;20019;-69
2022/02/20 01:32:59;;;;;;;17.95;2.05;;;;;;;5.99;88.88;98492.44;5065899;28;20270;-69
2022/02/20 01:35:24;;;;;;;3.95;0.80;;;;;;;6.09;89.04;98494.13;5065828;28;20025;-69
2022/02/20 01:37:50;;;;;;;10.48;1.25;;;;;;;6.09;89.18;98504.59;5065795;28;20025;-69
2022/02/20 01:40:15;;;;;;;11.38;2.20;;;;;;;6.05;89.43;98513.31;5065597;28;20024;-69
2022/02/20 01:42:41;;;;;;;5.40;1.10;;;;;;;6.11;88.81;98510.69;5065750;28;20243;-69
2022/02/20 01:45:12;;;;;;;8.57;1.42;;;;;;;6.13;88.12;98517.63;5065862;28;20312;-69
2022/02/20 01:47:37;;;;;;;3.10;1.42;;;;;;;6.17;88.54;98513.28;5065267;28;20021;-69
2022/02/20 01:50:03;;;;;;;4.85;1.08;;;;;;;6.16;89.29;98516.75;5065776;28;20047;-69
2022/02/20 01:52:30;;;;;;;13.77;1.67;;;;;;;5.97;90.59;98526.41;5065219;28;20197;-69
2022/02/20 01:54:55;;;;;;;5.93;1.05;;;;;;;6.10;90.93;98527.22;5065333;28;20239;-69
2022/02/20 01:57:21;;;;;;;4.05;0.95;;;;;;;6.01;91.60;98522.06;5065076;28;20083;-69
2022/02/20 01:59:46;;;;;;;10.88;1.67;;;;;;;6.00;91.70;98517.69;5062434;28;20043;-69
2022/02/20 02:02:12;;;;;;;3.92;0.47;;;;;;;5.99;92.23;98514.22;5064691;28;20264;-69
2022/02/20 02:04:38;;;;;;;5.63;1.50;;;;;;;6.01;91.62;98509.00;5064291;28;20029;-69
2022/02/20 02:07:03;;;;;;;9.00;1.55;;;;;;;5.93;91.65;98492.47;5065391;28;20212;-69
2022/02/20 02:09:29;;;;;;;6.90;1.00;;;;;;;5.97;91.80;98504.63;5067119;28;20075;-69
2022/02/20 02:11:54;;;;;;;1.83;0.77;;;;;;;6.04;92.05;98514.19;5070517;28;20024;-69
2022/02/20 02:14:20;;;;;;;1.33;1.00;;;;;;;6.08;91.91;98523.75;5066754;28;20020;-69
2022/02/20 02:16:45;;;;;;;12.88;1.55;;;;;;;6.09;91.56;98530.72;5066440;28;20044;-69
2022/02/20 02:19:11;;;;;;;12.82;1.02;;;;;;;6.10;91.55;98522.00;5065430;28;20212;-69
2022/02/20 02:21:37;;;;;;;9.32;0.90;;;;;;;6.05;92.07;98519.41;5065158;28;20097;-69
2022/02/20 02:24:02;;;;;;;4.55;1.35;;;;;;;6.07;92.88;98522.00;5066310;28;20093;-69
2022/02/20 02:26:31;;;;;;;9.35;1.90;;;;;;;6.10;92.82;98517.66;5066261;28;20081;-69
2022/02/20 02:28:56;;;;;;;5.55;0.95;;;;;;;6.09;92.24;98515.03;5062363;28;20021;-69
2022/02/20 02:31:22;;;;;;;2.65;1.05;;;;;;;6.05;93.06;98508.09;5064648;28;20063;-69
2022/02/20 02:33:49;;;;;;;4.65;0.95;;;;;;;6.08;92.98;98508.94;5064919;28;20048;-69
2022/02/20 02:36:15;;;;;;;10.98;1.48;;;;;;;5.93;93.27;98513.34;5064725;28;20118;-69
2022/02/20 02:38:41;;;;;;;14.18;1.27;;;;;;;5.93;93.66;98508.13;5064691;28;20336;-69
2022/02/20 02:41:09;;;;;;;3.42;1.50;;;;;;;6.03;93.45;98523.78;5064348;28;20031;-69
2022/02/20 02:43:36;;;;;;;3.22;0.80;;;;;;;6.00;93.42;98525.50;5064493;28;20332;-69
2022/02/20 02:46:03;;;;;;;4.45;1.30;;;;;;;6.06;93.45;98520.28;5064548;28;20025;-69
2022/02/20 02:48:28;;;;;;;5.07;1.08;;;;;;;6.12;93.49;98531.59;5064443;28;20216;-69
2022/02/20 02:50:55;;;;;;;6.47;1.20;;;;;;;6.01;93.89;98524.66;5063279;28;20012;-69
2022/02/20 02:53:20;;;;;;;7.28;1.42;;;;;;;5.94;94.60;98530.75;5064388;28;20023;-69
2022/02/20 02:55:51;;;;;;;6.25;1.50;;;;;;;6.00;94.30;98528.13;5064291;28;20025;-69
2022/02/20 02:58:22;;;;;;;5.13;0.95;;;;;;;5.97;94.30;98531.63;5063976;28;20041;-69
2022/02/20 03:00:48;;;;;;;10.00;1.45;;;;;;;5.96;94.43;98529.03;5064373;28;20066;-69
2022/02/20 03:03:14;;;;;;;2.22;1.02;;;;;;;6.09;94.03;98530.72;5064112;28;20020;-69
2022/02/20 03:05:39;;;;;;;11.20;1.48;;;;;;;6.00;94.09;98541.19;5064003;28;20059;-69
2022/02/20 03:08:05;;;;;;;8.00;1.58;;;;;;;6.06;94.09;98521.16;5063965;28;20021;-69
2022/02/20 03:10:31;;;;;;;4.82;1.10;;;;;;;6.13;94.42;98532.44;5063857;28;20055;-69
2022/02/20 03:12:56;;;;;;;12.55;1.90;;;;;;;6.07;94.16;98532.44;5063886;28;20031;-69
2022/02/20 03:15:22;;;;;;;2.17;0.88;;;;;;;6.10;93.88;98527.22;5063744;28;20028;-69
2022/02/20 03:17:47;;;;;;;11.68;1.80;;;;;;;6.07;94.35;98532.44;5064063;28;20244;-69
2022/02/20 03:20:13;;;;;;;5.32;1.15;;;;;;;6.12;94.45;98525.47;5063652;28;20029;-69
2022/02/20 03:22:38;;;;;;;7.47;1.33;;;;;;;6.14;93.93;98534.19;5063654;28;20088;-69
2022/02/20 03:25:06;;;;;;;5.72;1.30;;;;;;;6.10;94.37;98538.56;5063677;28;20217;-69
2022/02/20 03:27:32;;;;;;;4.20;1.02;;;;;;;6.07;94.92;98540.28;5063763;28;20020;-69
2022/02/20 03:29:58;;;;;;;7.03;1.10;;;;;;;6.09;95.03;98533.31;5063676;28;20083;-69
2022/02/20 03:32:23;;;;;;;4.30;1.20;;;;;;;6.01;95.33;98528.13;5063600;28;20072;-69
2022/02/20 03:34:49;;;;;;;5.45;1.58;;;;;;;6.09;95.23;98538.56;5063506;28;20021;-69
2022/02/20 03:37:14;;;;;;;8.98;1.48;;;;;;;6.08;95.29;98536.81;5063483;28;20056;-69
2022/02/20 03:39:39;;;;;;;8.93;1.80;;;;;;;6.09;95.21;98536.81;5063712;28;20025;-69
2022/02/20 03:42:05;;;;;;;5.28;1.13;;;;;;;6.06;95.04;98534.22;5063066;28;20029;-69
2022/02/20 03:44:30;;;;;;;5.60;1.73;;;;;;;6.10;94.93;98528.09;5063596;28;20020;-69
2022/02/20 03:46:56;;;;;;;6.80;1.00;;;;;;;6.10;94.74;98528.09;5063494;28;20305;-69
2022/02/20 03:49:21;;;;;;;9.15;1.25;;;;;;;6.04;95.11;98522.88;5063412;28;20031;-69
2022/02/20 03:51:47;;;;;;;18.85;1.77;;;;;;;6.16;95.09;98527.19;5063195;28;20021;-69
2022/02/20 03:54:12;;;;;;;6.30;1.65;;;;;;;6.28;95.12;98522.81;5063556;28;20025;-69
2022/02/20 03:56:38;;;;;;;7.18;1.52;;;;;;;6.31;95.02;98529.75;5063636;28;20028;-68
2022/02/20 03:59:03;;;;;;;3.30;1.40;;;;;;;6.28;95.04;98542.84;5063231;28;20111;-68
2022/02/20 04:01:29;;;;;;;5.97;1.85;;;;;;;6.31;95.00;98550.66;5063070;28;20028;-68
2022/02/20 04:03:54;;;;;;;4.63;1.10;;;;;;;6.24;94.88;98552.41;5062859;28;20021;-68
2022/02/20 04:06:20;;;;;;;6.18;0.77;;;;;;;6.20;95.63;98547.22;5063146;28;20020;-68
2022/02/20 04:08:45;;;;;;;8.23;1.10;;;;;;;6.28;95.67;98553.28;5063020;28;20208;-68
2022/02/20 04:11:11;;;;;;;7.88;1.15;;;;;;;6.26;95.09;98555.03;5062902;28;20021;-68
2022/02/20 04:13:37;;;;;;;3.25;1.08;;;;;;;6.24;95.04;98557.66;5063116;28;20113;-68
2022/02/20 04:16:04;;;;;;;1.92;1.17;;;;;;;6.38;95.46;98549.75;5063069;28;20253;-68
2022/02/20 04:18:29;;;;;;;4.60;1.50;;;;;;;6.38;94.97;98570.69;5063004;28;20021;-68
2022/02/20 04:20:55;;;;;;;10.40;1.63;;;;;;;6.24;95.31;98567.25;5062761;28;20324;-68
2022/02/20 04:23:22;;;;;;;9.18;1.60;;;;;;;6.21;95.63;98569.88;5062690;28;20040;-68
2022/02/20 04:25:47;;;;;;;5.85;1.83;;;;;;;6.31;95.33;98574.19;5062698;28;20071;-68
2022/02/20 04:28:13;;;;;;;7.20;1.48;;;;;;;6.21;95.65;98572.50;5061252;28;20325;-68
2022/02/20 04:30:39;;;;;;;9.57;1.65;;;;;;;6.24;95.78;98578.56;5063364;28;20017;-68
2022/02/20 04:33:04;;;;;;;14.57;1.98;;;;;;;6.24;95.97;98593.38;5062682;28;20083;-68
2022/02/20 04:35:31;;;;;;;3.20;1.65;;;;;;;6.20;96.38;98594.25;5062988;28;20021;-68
2022/02/20 04:37:57;;;;;;;6.93;1.27;;;;;;;6.19;96.30;98589.91;5062641;28;20044;-68
2022/02/20 04:40:23;;;;;;;3.88;1.35;;;;;;;6.16;96.35;98600.38;5062526;28;20028;-68
2022/02/20 04:42:51;;;;;;;5.13;1.40;;;;;;;6.18;96.75;98588.19;5064981;28;20084;-68
2022/02/20 04:45:20;;;;;;;2.85;1.05;;;;;;;6.17;96.90;98602.13;5063472;28;20048;-68
2022/02/20 04:47:45;;;;;;;8.30;1.73;;;;;;;6.22;96.53;98614.31;5063943;28;20032;-68
2022/02/20 04:50:11;;;;;;;11.15;1.80;;;;;;;6.20;96.85;98612.53;5063157;28;20033;-68
2022/02/20 04:52:37;;;;;;;5.78;1.35;;;;;;;6.25;97.02;98610.78;5063488;28;20028;-68
2022/02/20 04:55:02;;;;;;;5.78;1.23;;;;;;;6.19;97.42;98610.81;5065531;28;20344;-68
2022/02/20 04:57:32;;;;;;;2.78;1.20;;;;;;;6.19;97.16;98597.75;5065529;28;20359;-68
2022/02/20 04:59:58;;;;;;;7.40;1.55;;;;;;;6.21;97.61;98598.63;5062351;28;20073;-68
2022/02/20 05:02:23;;;;;;;3.55;1.73;;;;;;;6.18;97.40;98593.41;5061934;28;20212;-68
2022/02/20 05:04:49;;;;;;;11.35;2.10;;;;;;;6.18;97.77;98598.63;5062700;28;20067;-68
2022/02/20 05:07:14;;;;;;;4.78;1.48;;;;;;;6.20;97.80;98596.88;5062438;28;20089;-68
2022/02/20 05:09:41;;;;;;;4.35;1.70;;;;;;;6.16;97.73;98595.13;5062405;28;20382;-68
2022/02/20 05:12:07;;;;;;;11.10;1.85;;;;;;;6.22;97.60;98589.91;5062621;28;20042;-68
2022/02/20 05:14:33;;;;;;;5.88;1.13;;;;;;;6.20;97.60;98591.63;5062370;28;20329;-68
2022/02/20 05:16:58;;;;;;;9.20;1.85;;;;;;;6.28;97.76;98587.28;5062465;28;20021;-68
2022/02/20 05:19:23;;;;;;;10.25;1.83;;;;;;;6.24;97.18;98580.31;5062556;28;20084;-68
2022/02/20 05:21:49;;;;;;;9.55;1.50;;;;;;;6.21;97.36;98585.56;5062277;28;20096;-68
2022/02/20 05:24:15;;;;;;;12.45;1.67;;;;;;;6.28;97.18;98589.88;5062228;28;20092;-68
2022/02/20 05:26:40;;;;;;;8.63;1.90;;;;;;;6.29;97.27;98581.16;5062498;28;20033;-68
2022/02/20 05:29:06;;;;;;;3.85;1.45;;;;;;;6.26;97.32;98575.94;5062170;28;20032;-68
2022/02/20 05:31:31;;;;;;;7.10;1.58;;;;;;;6.21;97.05;98578.56;5062558;28;20388;-68
2022/02/20 05:33:57;;;;;;;12.85;2.42;;;;;;;6.24;97.61;98578.56;5061832;28;20049;-68
2022/02/20 05:36:24;;;;;;;2.42;1.33;;;;;;;6.28;97.36;98584.66;5063176;28;20051;-68
2022/02/20 05:38:50;;;;;;;8.88;1.30;;;;;;;6.26;97.29;98587.28;5065803;28;20336;-68
2022/02/20 05:41:17;;;;;;;3.15;1.35;;;;;;;6.19;97.30;98585.56;5065677;28;20020;-68
2022/02/20 05:43:43;;;;;;;5.82;1.40;;;;;;;6.25;97.15;98584.66;5065584;28;20263;-68
2022/02/20 05:46:08;;;;;;;11.65;1.85;;;;;;;6.32;97.24;98587.25;5066071;28;20087;-68
2022/02/20 05:48:34;;;;;;;5.28;1.10;;;;;;;6.27;97.76;98585.53;5065749;28;20047;-68
2022/02/20 05:50:59;;;;;;;8.70;1.83;;;;;;;6.26;97.63;98586.41;5065903;28;20204;-68
2022/02/20 05:53:24;;;;;;;8.77;1.73;;;;;;;6.31;98.01;98585.53;5065570;28;20025;-68
2022/02/20 05:55:50;;;;;;;9.15;1.90;;;;;;;6.31;97.53;98587.25;5065421;28;20205;-68
2022/02/20 05:58:17;;;;;;;3.97;1.85;;;;;;;6.35;98.05;98578.53;5064346;28;20037;-68
2022/02/20 06:00:43;;;;;;;8.02;1.55;;;;;;;6.36;97.75;98588.13;5065305;28;20066;-68
2022/02/20 06:03:09;;;;;;;5.03;1.63;;;;;;;6.43;97.43;98585.47;5065282;28;20035;-68
2022/02/20 06:05:34;;;;;;;4.47;1.52;;;;;;;6.35;97.40;98586.38;5065373;28;20317;-68
2022/02/20 06:08:00;;;;;;;11.48;1.70;;;;;;;6.37;97.07;98584.63;5065039;28;20266;-68
2022/02/20 06:10:25;;;;;;;4.13;1.50;;;;;;;6.37;97.25;98589.84;5065399;28;20013;-68
2022/02/20 06:12:51;;;;;;;12.77;1.33;;;;;;;6.38;97.15;98589.84;5065060;28;20044;-68
2022/02/20 06:15:16;;;;;;;12.50;1.83;;;;;;;6.42;97.04;98588.06;5065119;28;20036;-68
2022/02/20 06:17:42;;;;;;;6.13;1.30;;;;;;;6.43;96.80;98595.91;5065036;28;20024;-68
2022/02/20 06:20:08;;;;;;;3.53;1.48;;;;;;;6.42;96.88;98598.53;5065080;28;20051;-68
2022/02/20 06:22:34;;;;;;;6.43;1.30;;;;;;;6.44;97.08;98582.00;5065311;28;20340;-68
2022/02/20 06:24:59;;;;;;;6.90;2.30;;;;;;;6.42;97.08;98588.06;5064852;28;20031;-68
2022/02/20 06:27:25;;;;;;;4.03;1.27;;;;;;;6.43;96.97;98584.63;5065038;28;20395;-68
2022/02/20 06:29:50;;;;;;;6.53;1.73;;;;;;;6.47;97.04;98592.44;5065349;28;20021;-68
2022/02/20 06:32:16;;;;;;;6.28;1.70;;;;;;;6.51;96.95;98585.44;5065391;28;20280;-68
2022/02/20 06:34:41;;;;;;;3.40;1.58;;;;;;;6.45;97.27;98577.63;5065430;28;20070;-68
2022/02/20 06:37:07;;;;;;;3.13;1.30;;;;;;;6.52;97.23;98574.13;5064499;28;20051;-68
2022/02/20 06:39:32;;;;;;;5.13;1.08;;;;;;;6.57;97.40;98577.56;5064342;28;20482;-68
2022/02/20 06:41:58;;;;;;;4.72;1.55;;;;;;;6.65;97.39;98591.50;5064632;28;20035;-68
2022/02/20 06:44:23;;;;;;;8.40;1.67;;;;;;;6.47;97.57;98581.09;5064486;28;20198;-68
2022/02/20 06:46:48;;;;;;;1.60;1.20;;;;;;;6.36;98.44;98588.13;5063909;28;20028;-68
2022/02/20 06:49:14;;;;;;;2.88;1.15;;;;;;;6.36;98.51;98585.50;5064531;28;20032;-68
2022/02/20 06:51:39;;;;;;;3.40;1.00;;;;;;;6.39;98.75;98593.31;5064605;28;20017;-68
2022/02/20 06:54:05;;;;;;;7.40;1.42;;;;;;;6.48;98.18;98582.84;5064438;28;20344;-68
2022/02/20 06:56:31;;;;;;;2.85;1.17;;;;;;;6.39;98.33;98595.94;5064207;28;20055;-68
2022/02/20 06:58:57;;;;;;;6.05;1.70;;;;;;;6.38;98.44;98596.81;5060989;28;20052;-68
2022/02/20 07:01:22;;;;;;;5.68;1.20;;;;;;;6.39;98.72;98594.19;5063898;28;20028;-68
2022/02/20 07:03:48;;;;;;;11.32;1.92;;;;;;;6.44;98.55;98596.78;5066234;28;20025;-68
2022/02/20 07:06:13;;;;;;;5.95;1.60;;;;;;;6.51;98.03;98588.06;5064227;28;20080;-68
2022/02/20 07:08:39;;;;;;;3.40;1.20;;;;;;;6.44;98.09;98599.41;5065063;28;20304;-68
2022/02/20 07:11:04;;;;;;;4.25;1.30;;;;;;;6.45;98.36;98598.53;5065195;28;20016;-68
2022/02/20 07:13:29;;;;;;;1.40;1.08;;;;;;;6.59;97.93;98596.75;5066167;28;20035;-68
2022/02/20 07:15:55;;;;;;;10.38;1.38;;;;;;;6.47;98.25;98596.78;5068483;28;20066;-68
2022/02/20 07:18:21;;;;;;;4.00;1.08;;;;;;;6.59;97.71;98591.50;5065988;28;20235;-68
2022/02/20 07:20:47;;;;;;;8.55;1.55;;;;;;;6.57;97.42;98588.91;5066619;28;20197;-68
2022/02/20 07:23:13;;;;;;;5.75;1.25;;;;;;;6.55;97.08;98588.03;5069101;28;20024;-68
2022/02/20 07:25:39;;;;;;;8.57;1.40;;;;;;;6.51;97.28;98586.31;5064509;28;20278;-68
2022/02/20 07:28:05;;;;;;;10.25;1.25;;;;;;;6.51;97.86;98598.50;5064054;28;20095;-68
2022/02/20 07:30:31;;;;;;;6.82;1.33;;;;;;;6.68;97.25;98581.03;5063585;28;20044;-68
2022/02/20 07:32:58;;;;;;;8.32;1.23;;;;;;;6.68;96.88;98586.25;5063862;28;20225;-68
2022/02/20 07:35:23;;;;;;;10.07;1.38;;;;;;;6.67;96.86;98578.41;5063618;28;20035;-68
2022/02/20 07:37:49;;;;;;;4.00;1.00;;;;;;;6.70;96.89;98578.41;5063857;28;20017;-68
2022/02/20 07:40:16;;;;;;;5.70;1.48;;;;;;;6.60;97.08;98582.78;5063422;28;20328;-68
2022/02/20 07:42:42;;;;;;;5.20;1.33;;;;;;;6.63;96.98;98582.78;5061051;28;20040;-68
2022/02/20 07:45:08;;;;;;;7.38;0.98;;;;;;;6.56;97.46;98588.91;5061149;28;20036;-68
2022/02/20 07:47:58;;;;;;;2.53;0.85;;;;;;;6.61;97.62;98590.63;5062267;28;20080;-68
2022/02/20 07:50:29;;;;;;;3.60;0.95;;;;;;;6.61;97.76;98589.75;5062547;28;20016;-68
2022/02/20 07:52:55;;;;;;;5.75;1.15;;;;;;;6.72;96.89;98584.47;5062786;28;20224;-68
2022/02/20 07:55:21;;;;;;;3.28;0.90;;;;;;;6.74;96.99;98588.81;5061833;28;20088;-68
2022/02/20 07:57:47;;;;;;;2.45;1.00;;;;;;;6.69;96.83;98577.50;5062010;28;20239;-68
2022/02/20 08:00:16;;;;;;;4.50;1.42;;;;;;;6.64;97.05;98597.56;5060860;28;20337;-68
2022/02/20 08:02:42;;;;;;;1.67;0.75;;;;;;;6.72;97.41;98595.81;5061250;28;20047;-68
2022/02/20 08:05:08;;;;;;;1.92;1.13;;;;;;;6.69;97.29;98598.44;5062171;28;20043;-68
2022/02/20 08:07:34;;;;;;;5.35;1.40;;;;;;;6.63;96.95;98604.56;5061752;28;20320;-68
2022/02/20 08:09:59;;;;;;;5.47;1.33;;;;;;;6.72;97.21;98613.25;5062274;28;20048;-68
2022/02/20 08:12:24;;;;;;;4.72;0.95;;;;;;;6.71;97.27;98614.13;5060997;28;20021;-68
2022/02/20 08:14:50;;;;;;;3.58;1.10;;;;;;;6.58;97.11;98626.34;5062115;28;20025;-68
2022/02/20 08:17:15;;;;;;;5.35;1.48;;;;;;;6.63;97.60;98624.63;5062054;28;20048;-68
2022/02/20 08:19:41;;;;;;;14.82;1.60;;;;;;;6.76;97.85;98626.28;5061600;28;20020;-68
2022/02/20 08:22:06;;;;;;;3.80;1.05;;;;;;;6.60;97.19;98630.72;5059661;28;20225;-68
2022/02/20 08:24:31;;;;;;;2.88;1.23;;;;;;;6.61;97.74;98631.59;5062189;28;20051;-68
2022/02/20 08:26:57;;;;;;;5.78;1.20;;;;;;;6.68;97.66;98643.78;5061463;28;20091;-68
2022/02/20 08:29:23;;;;;;;6.90;1.70;;;;;;;6.54;98.47;98645.56;5061705;28;20052;-68
2022/02/20 08:31:48;;;;;;;6.40;1.58;;;;;;;6.58;98.27;98653.38;5061643;28;20009;-68
2022/02/20 08:34:14;;;;;;;10.35;1.50;;;;;;;6.62;98.31;98649.03;5060975;28;20017;-68
2022/02/20 08:36:40;;;;;;;5.10;1.15;;;;;;;6.75;97.77;98645.50;5061908;28;20225;-68
2022/02/20 08:39:06;;;;;;;2.22;1.35;;;;;;;6.78;97.72;98647.22;5061688;28;20084;-68
2022/02/20 08:41:31;;;;;;;6.40;1.20;;;;;;;6.76;97.88;98638.50;5061585;28;20021;-68
2022/02/20 08:43:57;;;;;;;11.00;1.50;;;;;;;6.70;98.41;98642.00;5061638;28;20076;-68
2022/02/20 08:46:22;;;;;;;4.07;1.10;;;;;;;6.71;98.71;98628.09;5061802;28;20021;-68
2022/02/20 08:48:48;;;;;;;6.40;1.60;;;;;;;6.60;98.69;98629.84;5061025;28;20021;-68
2022/02/20 08:51:15;;;;;;;1.05;0.95;;;;;;;6.55;99.46;98652.53;5064415;28;20016;-68
2022/02/20 08:53:40;;;;;;;8.52;1.40;;;;;;;6.65;99.92;98649.88;5061715;28;20021;-68
2022/02/20 08:56:07;;;;;;;3.60;1.60;;;;;;;6.58;99.13;98636.81;5059889;28;20032;-68
2022/02/20 08:58:33;;;;;;;3.08;1.23;;;;;;;6.76;98.98;98639.38;5058640;28;20059;-68
2022/02/20 09:00:59;;;;;;;12.02;1.23;;;;;;;6.83;98.94;98620.16;5060747;28;20013;-68
2022/02/20 09:03:24;;;;;;;3.97;1.50;;;;;;;6.84;98.36;98627.16;5060950;28;20020;-68
2022/02/20 09:05:50;;;;;;;2.40;1.10;;;;;;;6.79;98.52;98625.41;5061475;28;20017;-68
2022/02/20 09:08:15;;;;;;;4.20;1.05;;;;;;;6.85;98.73;98631.50;5064006;28;20205;-68
2022/02/20 09:10:42;;;;;;;6.63;0.90;;;;;;;6.82;99.15;98620.16;5064921;28;20013;-68
2022/02/20 09:13:08;;;;;;;3.35;1.10;;;;;;;6.93;98.86;98621.84;5064625;28;20378;-68
2022/02/20 09:15:33;;;;;;;4.25;1.13;;;;;;;7.12;97.82;98626.09;5065452;28;20017;-68
2022/02/20 09:17:59;;;;;;;8.68;1.42;;;;;;;7.08;98.26;98628.78;5065259;28;20017;-68
2022/02/20 09:20:25;;;;;;;11.82;1.90;;;;;;;7.02;98.64;98634.88;5064376;28;20029;-68
2022/02/20 09:22:54;;;;;;;5.35;1.13;;;;;;;7.04;98.65;98622.66;5064110;28;20021;-68
2022/02/20 09:25:19;;;;;;;1.52;0.70;;;;;;;7.21;97.67;98618.19;5064979;28;20212;-68
2022/02/20 09:27:45;;;;;;;1.45;0.77;;;;;;;7.17;97.49;98603.41;5061603;28;20013;-68
2022/02/20 09:30:11;;;;;;;2.90;0.77;;;;;;;7.19;97.60;98617.34;5065309;28;20016;-68
2022/02/20 09:32:37;;;;;;;2.33;0.80;;;;;;;7.31;97.43;98606.78;5065032;28;20057;-68
2022/02/20 09:35:02;;;;;;;2.72;0.90;;;;;;;7.27;97.11;98594.59;5065318;28;20033;-68
2022/02/20 09:37:28;;;;;;;3.40;1.05;;;;;;;7.42;97.21;98604.97;5066009;28;20320;-68
2022/02/20 09:39:54;;;;;;;9.25;1.33;;;;;;;7.28;96.81;98605.94;5064454;28;20024;-68
2022/02/20 09:42:20;;;;;;;2.22;0.95;;;;;;;7.28;97.10;98616.41;5064734;28;20021;-68
2022/02/20 09:44:46;;;;;;;5.03;1.15;;;;;;;7.31;97.48;98601.53;5062613;28;20031;-68
2022/02/20 09:47:12;;;;;;;2.13;0.93;;;;;;;7.20;97.21;98603.38;5060511;28;20020;-68
2022/02/20 09:49:39;;;;;;;6.72;1.17;;;;;;;7.23;97.48;98602.47;5066559;28;20024;-68
2022/02/20 09:52:04;;;;;;;7.18;1.17;;;;;;;7.32;97.27;98600.69;5064670;28;20029;-68
2022/02/20 09:54:31;;;;;;;5.57;1.38;;;;;;;7.40;97.70;98606.72;5071857;28;20046;-68
2022/02/20 09:56:57;;;;;;;3.50;1.30;;;;;;;7.41;97.71;98598.00;5066093;28;20013;-68
2022/02/20 09:59:23;;;;;;;1.15;0.82;;;;;;;7.26;98.28;98587.63;5064605;28;20333;-68
2022/02/20 10:02:04;;;;;;;1.50;0.70;;;;;;;7.18;99.05;98589.41;5064570;28;20023;-68
2022/02/20 10:04:41;;;;;;;6.50;0.67;;;;;;;7.22;98.94;98593.78;5065234;28;20031;-68
2022/02/20 10:07:24;;;;;;;1.52;0.63;;;;;;;7.28;98.67;98596.31;5064523;28;20360;-68
2022/02/20 10:09:49;;;;;;;2.10;0.95;;;;;;;7.28;98.51;98606.78;5063771;28;20039;-68
2022/02/20 10:12:20;;;;;;;1.13;0.98;;;;;;;7.38;97.89;98613.72;5063870;28;20213;-68
2022/02/20 10:14:45;;;;;;;4.68;0.82;;;;;;;7.39;98.04;98604.09;5064487;28;20197;-68
2022/02/20 10:17:16;;;;;;;0.30;0.30;;;;;;;7.43;97.96;98604.06;5063992;28;20051;-68
2022/02/20 10:19:57;;;;;;;0.68;0.38;;;;;;;7.36;97.83;98584.06;5063318;28;20027;-68
2022/02/20 10:22:38;;;;;;;0.95;0.45;;;;;;;7.40;97.75;98585.78;5062897;28;20033;-68
2022/02/20 10:25:13;;;;;;;4.00;0.60;;;;;;;7.43;97.76;98579.66;5063812;28;20021;-68
2022/02/20 10:27:50;;;;;;;0.52;0.43;;;;;;;7.46;97.65;98584.84;5062863;28;20391;-68
2022/02/20 10:30:21;;;;;;;0.65;0.43;;;;;;;7.32;98.31;98592.84;5063393;28;20062;-67
2022/02/20 10:33:10;;;;;;;0.40;0.40;;;;;;;7.18;98.80;98575.50;5062964;28;20052;-67
2022/02/20 10:35:44;;;;;;;1.23;0.82;;;;;;;7.08;99.20;98556.34;5063109;28;20020;-67
2022/02/20 10:38:12;;;;;;;0.40;0.40;;;;;;;7.25;99.38;98559.72;5063478;28;20044;-67
2022/02/20 10:40:39;;;;;;;2.22;0.40;;;;;;;7.38;99.43;98566.59;5063448;28;20036;-68
2022/02/20 10:43:08;;;;;;;4.78;0.50;;;;;;;7.27;99.24;98560.56;5063347;28;20032;-67
2022/02/20 10:45:37;;;;;;;1.48;0.73;;;;;;;7.38;99.62;98550.91;5062782;28;20136;-67
2022/02/20 10:48:05;;;;;;;0.47;0.47;;;;;;;7.37;99.42;98543.91;5063689;28;20020;-67
2022/02/20 10:50:32;;;;;;;0.57;0.50;;;;;;;7.38;99.85;98550.91;5064163;28;20024;-67
2022/02/20 10:53:19;;;;;;;0.45;0.45;;;;;;;7.43;99.55;98543.84;5064017;28;20017;-67
2022/02/20 10:55:50;;;;;;;0.60;0.35;;;;;;;7.27;99.57;98557.94;5063957;28;20217;-67
2022/02/20 10:58:17;;;;;;;2.45;0.90;;;;;;;7.20;99.65;98558.00;5055197;28;20047;-67
2022/02/20 11:00:51;;;;;;;0.93;0.63;;;;;;;7.33;100.00;98557.91;5064126;28;20025;-67
2022/02/20 11:03:19;;;;;;;1.38;0.55;;;;;;;7.25;100.00;98564.97;5064106;28;20131;-67
2022/02/20 11:05:45;;;;;;;5.03;1.38;;;;;;;7.53;100.00;98557.75;5064913;28;20055;-67
2022/02/20 11:08:12;;;;;;;1.60;0.88;;;;;;;7.54;99.93;98562.97;5063522;28;20025;-67
2022/02/20 11:10:39;;;;;;;0.43;0.43;;;;;;;7.44;100.00;98550.81;5062784;28;20025;-67
2022/02/20 11:13:06;;;;;;;2.47;0.80;;;;;;;7.39;100.00;98557.84;5063625;28;20028;-67
2022/02/20 11:15:34;;;;;;;0.55;0.50;;;;;;;7.37;100.00;98543.91;5062853;28;20023;-67
2022/02/20 11:18:01;;;;;;;1.05;0.60;;;;;;;7.40;100.00;98537.78;5058026;28;20208;-67
2022/02/20 11:20:31;;;;;;;1.10;0.57;;;;;;;7.46;100.00;98528.13;5062408;28;20028;-67
2022/02/20 11:23:04;;;;;;;1.73;0.73;;;;;;;7.46;100.00;98546.44;5063191;28;20029;-68
2022/02/20 11:25:32;;;;;;;1.17;0.70;;;;;;;7.49;100.00;98522.84;5061486;28;20087;-67
2022/02/20 11:27:59;;;;;;;1.05;0.57;;;;;;;7.38;100.00;98519.47;5062804;28;20029;-67
2022/02/20 11:30:25;;;;;;;0.50;0.35;;;;;;;7.49;100.00;98507.16;5063080;28;20372;-67
2022/02/20 11:32:52;;;;;;;1.55;0.75;;;;;;;7.46;100.00;98511.53;5062593;28;20321;-67
2022/02/20 11:35:19;;;;;;;0.57;0.57;;;;;;;7.44;100.00;98511.53;5062221;28;20017;-67